sensor_id;sensor_type;location;lat;lon;timestamp;temperature;humidity
13642;DHT22;6894;52.196;9.904;2023-04-06T00:00:09;0.80;1.00
13642;DHT22;6894;52.196;9.904;2023-04-06T00:02:37;0.70;1.00
13642;DHT22;6894;52.196;9.904;2023-04-06T00:05:05;0.70;1.00
13642;DHT22;6894;52.196;9.904;2023-04-06T00:07:33;0.60;1.00
13642;DHT22;6894;52.196;9.904;2023-04-06T00:10:00;0.60;1.00
13642;DHT22;6894;52.196;9.904;2023-04-06T00:12:26;0.60;1.00
13642;DHT22;6894;52.196;9.904;2023-04-06T00:14:53;0.60;99.90
13642;DHT22;6894;52.196;9.904;2023-04-06T00:17:20;0.60;99.90
13642;DHT22;6894;52.196;9.904;2023-04-06T00:19:48;0.50;99.90
13642;DHT22;6894;52.196;9.904;2023-04-06T00:22:15;0.40;99.90
13642;DHT22;6894;52.196;9.904;2023-04-06T00:24:42;0.40;1.00
13642;DHT22;6894;52.196;9.904;2023-04-06T00:27:09;0.50;1.00
13642;DHT22;6894;52.196;9.904;2023-04-06T00:29:36;0.40;1.00
13642;DHT22;6894;52.196;9.904;2023-04-06T00:32:04;0.40;1.00
13642;DHT22;6894;52.196;9.904;2023-04-06T00:34:31;0.40;1.00
13642;DHT22;6894;52.196;9.904;2023-04-06T00:36:59;0.30;1.00
13642;DHT22;6894;52.196;9.904;2023-04-06T00:39:26;0.30;99.90
13642;DHT22;6894;52.196;9.904;2023-04-06T00:41:53;0.30;99.90
13642;DHT22;6894;52.196;9.904;2023-04-06T00:44:20;0.40;99.90
13642;DHT22;6894;52.196;9.904;2023-04-06T00:46:48;0.40;1.00
13642;DHT22;6894;52.196;9.904;2023-04-06T00:49:14;0.40;1.00
13642;DHT22;6894;52.196;9.904;2023-04-06T00:51:41;1.30;1.00
13642;DHT22;6894;52.196;9.904;2023-04-06T00:54:10;0.40;1.00
13642;DHT22;6894;52.196;9.904;2023-04-06T00:56:36;0.20;1.00
13642;DHT22;6894;52.196;9.904;2023-04-06T00:59:03;0.30;93.10
13642;DHT22;6894;52.196;9.904;2023-04-06T01:01:30;0.30;99.90
13642;DHT22;6894;52.196;9.904;2023-04-06T01:03:58;0.20;1.00
13642;DHT22;6894;52.196;9.904;2023-04-06T01:06:25;0.20;1.00
13642;DHT22;6894;52.196;9.904;2023-04-06T01:08:52;0.20;1.00
13642;DHT22;6894;52.196;9.904;2023-04-06T01:11:20;0.10;1.00
13642;DHT22;6894;52.196;9.904;2023-04-06T01:13:48;0.10;1.00
13642;DHT22;6894;52.196;9.904;2023-04-06T01:16:15;0.10;1.00
13642;DHT22;6894;52.196;9.904;2023-04-06T01:18:41;0.10;1.00
13642;DHT22;6894;52.196;9.904;2023-04-06T01:21:08;0.00;69.40
13642;DHT22;6894;52.196;9.904;2023-04-06T01:23:42;0.00;99.90
13642;DHT22;6894;52.196;9.904;2023-04-06T01:26:09;0.10;1.00
13642;DHT22;6894;52.196;9.904;2023-04-06T01:28:36;0.10;1.00
13642;DHT22;6894;52.196;9.904;2023-04-06T01:31:04;0.00;1.00
13642;DHT22;6894;52.196;9.904;2023-04-06T01:33:31;0.00;1.00
13642;DHT22;6894;52.196;9.904;2023-04-06T01:35:58;-0.10;1.00
13642;DHT22;6894;52.196;9.904;2023-04-06T01:38:25;-0.10;91.80
13642;DHT22;6894;52.196;9.904;2023-04-06T01:40:53;-0.10;99.90
13642;DHT22;6894;52.196;9.904;2023-04-06T01:43:21;-0.20;99.90
13642;DHT22;6894;52.196;9.904;2023-04-06T01:45:48;0.00;1.00
13642;DHT22;6894;52.196;9.904;2023-04-06T01:48:15;-0.20;1.00
13642;DHT22;6894;52.196;9.904;2023-04-06T01:50:42;-0.20;1.00
13642;DHT22;6894;52.196;9.904;2023-04-06T01:53:08;-0.30;1.00
13642;DHT22;6894;52.196;9.904;2023-04-06T01:55:36;-0.20;1.00
13642;DHT22;6894;52.196;9.904;2023-04-06T01:58:04;-0.20;1.00
13642;DHT22;6894;52.196;9.904;2023-04-06T02:00:31;-0.30;1.00
13642;DHT22;6894;52.196;9.904;2023-04-06T02:02:57;-0.30;1.00
13642;DHT22;6894;52.196;9.904;2023-04-06T02:05:25;-0.40;1.00
13642;DHT22;6894;52.196;9.904;2023-04-06T02:07:52;-0.40;1.00
13642;DHT22;6894;52.196;9.904;2023-04-06T02:10:19;-0.40;1.00
13642;DHT22;6894;52.196;9.904;2023-04-06T02:12:46;-0.40;1.00
13642;DHT22;6894;52.196;9.904;2023-04-06T02:15:14;-0.50;1.00
13642;DHT22;6894;52.196;9.904;2023-04-06T02:17:41;-0.50;98.20
13642;DHT22;6894;52.196;9.904;2023-04-06T02:20:09;-0.40;99.90
13642;DHT22;6894;52.196;9.904;2023-04-06T02:22:36;-0.50;99.90
13642;DHT22;6894;52.196;9.904;2023-04-06T02:25:03;-0.50;99.90
13642;DHT22;6894;52.196;9.904;2023-04-06T02:27:30;-0.50;99.90
13642;DHT22;6894;52.196;9.904;2023-04-06T02:29:57;-0.60;99.90
13642;DHT22;6894;52.196;9.904;2023-04-06T02:32:25;-0.60;1.00
13642;DHT22;6894;52.196;9.904;2023-04-06T02:34:52;-0.60;1.00
13642;DHT22;6894;52.196;9.904;2023-04-06T02:37:19;-0.70;1.00
13642;DHT22;6894;52.196;9.904;2023-04-06T02:39:46;-0.70;1.00
13642;DHT22;6894;52.196;9.904;2023-04-06T02:42:13;-0.70;1.00
13642;DHT22;6894;52.196;9.904;2023-04-06T02:44:40;-0.70;1.00
13642;DHT22;6894;52.196;9.904;2023-04-06T02:47:08;-0.70;1.00
13642;DHT22;6894;52.196;9.904;2023-04-06T02:49:36;-0.80;1.00
13642;DHT22;6894;52.196;9.904;2023-04-06T02:52:03;-0.60;27.60
13642;DHT22;6894;52.196;9.904;2023-04-06T02:54:30;-0.70;93.30
13642;DHT22;6894;52.196;9.904;2023-04-06T02:56:57;-0.80;99.90
13642;DHT22;6894;52.196;9.904;2023-04-06T02:59:23;-0.80;99.90
13642;DHT22;6894;52.196;9.904;2023-04-06T03:01:51;-0.80;99.90
13642;DHT22;6894;52.196;9.904;2023-04-06T03:04:18;-0.80;99.90
13642;DHT22;6894;52.196;9.904;2023-04-06T03:06:46;-0.80;99.90
13642;DHT22;6894;52.196;9.904;2023-04-06T03:09:13;-0.70;99.90
13642;DHT22;6894;52.196;9.904;2023-04-06T03:11:40;-0.80;99.90
13642;DHT22;6894;52.196;9.904;2023-04-06T03:14:07;-0.80;99.90
13642;DHT22;6894;52.196;9.904;2023-04-06T03:16:34;-0.70;99.90
13642;DHT22;6894;52.196;9.904;2023-04-06T03:19:01;-0.80;99.90
13642;DHT22;6894;52.196;9.904;2023-04-06T03:21:28;-0.80;1.00
13642;DHT22;6894;52.196;9.904;2023-04-06T03:23:56;-0.90;1.00
13642;DHT22;6894;52.196;9.904;2023-04-06T03:26:23;-0.70;1.00
13642;DHT22;6894;52.196;9.904;2023-04-06T03:28:49;-1.00;1.00
13642;DHT22;6894;52.196;9.904;2023-04-06T03:31:16;-1.00;1.00
13642;DHT22;6894;52.196;9.904;2023-04-06T03:33:43;-1.00;1.00
13642;DHT22;6894;52.196;9.904;2023-04-06T03:36:10;-1.00;1.00
13642;DHT22;6894;52.196;9.904;2023-04-06T03:38:37;-1.00;1.00
13642;DHT22;6894;52.196;9.904;2023-04-06T03:41:05;-0.90;1.00
13642;DHT22;6894;52.196;9.904;2023-04-06T03:43:32;-0.90;1.00
13642;DHT22;6894;52.196;9.904;2023-04-06T03:45:59;-0.90;1.00
13642;DHT22;6894;52.196;9.904;2023-04-06T03:48:26;-0.90;1.00
13642;DHT22;6894;52.196;9.904;2023-04-06T03:50:53;-0.90;1.00
13642;DHT22;6894;52.196;9.904;2023-04-06T03:53:19;-0.90;99.90
13642;DHT22;6894;52.196;9.904;2023-04-06T03:55:46;-0.80;99.90
13642;DHT22;6894;52.196;9.904;2023-04-06T03:58:14;-0.90;99.90
13642;DHT22;6894;52.196;9.904;2023-04-06T04:00:41;-1.00;99.90
13642;DHT22;6894;52.196;9.904;2023-04-06T04:03:08;-1.10;1.00
13642;DHT22;6894;52.196;9.904;2023-04-06T04:05:35;-1.00;1.00
13642;DHT22;6894;52.196;9.904;2023-04-06T04:08:02;-1.10;1.00
13642;DHT22;6894;52.196;9.904;2023-04-06T04:10:30;-1.10;1.00
13642;DHT22;6894;52.196;9.904;2023-04-06T04:12:56;-1.10;1.00
13642;DHT22;6894;52.196;9.904;2023-04-06T04:15:25;-1.10;1.00
13642;DHT22;6894;52.196;9.904;2023-04-06T04:17:51;-1.10;1.00
13642;DHT22;6894;52.196;9.904;2023-04-06T04:20:18;-1.20;1.00
13642;DHT22;6894;52.196;9.904;2023-04-06T04:22:45;-1.10;1.00
13642;DHT22;6894;52.196;9.904;2023-04-06T04:25:12;-1.00;1.00
13642;DHT22;6894;52.196;9.904;2023-04-06T04:27:39;-1.20;1.00
13642;DHT22;6894;52.196;9.904;2023-04-06T04:30:07;-1.00;1.00
13642;DHT22;6894;52.196;9.904;2023-04-06T04:32:35;-1.30;1.00
13642;DHT22;6894;52.196;9.904;2023-04-06T04:35:03;-1.30;1.00
13642;DHT22;6894;52.196;9.904;2023-04-06T04:37:29;-1.30;1.00
13642;DHT22;6894;52.196;9.904;2023-04-06T04:39:56;-1.30;1.00
13642;DHT22;6894;52.196;9.904;2023-04-06T04:42:23;-1.20;1.00
13642;DHT22;6894;52.196;9.904;2023-04-06T04:44:50;-1.40;1.00
13642;DHT22;6894;52.196;9.904;2023-04-06T04:47:17;-1.40;1.00
13642;DHT22;6894;52.196;9.904;2023-04-06T04:49:45;-1.40;1.00
13642;DHT22;6894;52.196;9.904;2023-04-06T04:52:12;-1.40;1.00
13642;DHT22;6894;52.196;9.904;2023-04-06T04:54:39;-1.40;1.00
13642;DHT22;6894;52.196;9.904;2023-04-06T04:57:06;-1.30;1.00
13642;DHT22;6894;52.196;9.904;2023-04-06T04:59:34;-1.30;1.00
13642;DHT22;6894;52.196;9.904;2023-04-06T05:02:01;-1.30;1.00
13642;DHT22;6894;52.196;9.904;2023-04-06T05:04:28;-1.20;1.00
13642;DHT22;6894;52.196;9.904;2023-04-06T05:07:04;-1.20;1.00
13642;DHT22;6894;52.196;9.904;2023-04-06T05:09:30;-1.10;1.00
13642;DHT22;6894;52.196;9.904;2023-04-06T05:11:58;-1.10;7.50
13642;DHT22;6894;52.196;9.904;2023-04-06T05:14:25;-1.00;16.70
13642;DHT22;6894;52.196;9.904;2023-04-06T05:16:52;-1.00;24.40
13642;DHT22;6894;52.196;9.904;2023-04-06T05:19:19;-0.90;43.90
13642;DHT22;6894;52.196;9.904;2023-04-06T05:21:46;-0.80;63.30
13642;DHT22;6894;52.196;9.904;2023-04-06T05:24:14;-0.70;68.20
13642;DHT22;6894;52.196;9.904;2023-04-06T05:26:41;-0.70;58.30
13642;DHT22;6894;52.196;9.904;2023-04-06T05:29:08;-0.50;37.50
13642;DHT22;6894;52.196;9.904;2023-04-06T05:31:35;-0.40;1.00
13642;DHT22;6894;52.196;9.904;2023-04-06T05:34:02;-0.20;1.00
13642;DHT22;6894;52.196;9.904;2023-04-06T05:36:29;-0.10;1.00
13642;DHT22;6894;52.196;9.904;2023-04-06T05:38:57;0.10;1.00
13642;DHT22;6894;52.196;9.904;2023-04-06T05:41:26;0.30;1.00
13642;DHT22;6894;52.196;9.904;2023-04-06T05:43:53;0.40;1.00
13642;DHT22;6894;52.196;9.904;2023-04-06T05:46:19;0.60;1.00
13642;DHT22;6894;52.196;9.904;2023-04-06T05:48:46;0.80;1.00
13642;DHT22;6894;52.196;9.904;2023-04-06T05:51:13;1.00;99.90
13642;DHT22;6894;52.196;9.904;2023-04-06T05:53:40;1.20;1.00
13642;DHT22;6894;52.196;9.904;2023-04-06T05:56:07;1.40;1.00
13642;DHT22;6894;52.196;9.904;2023-04-06T05:58:35;1.60;99.90
13642;DHT22;6894;52.196;9.904;2023-04-06T06:01:02;1.70;99.90
13642;DHT22;6894;52.196;9.904;2023-04-06T06:03:30;2.00;99.90
13642;DHT22;6894;52.196;9.904;2023-04-06T06:06:00;2.10;1.00
13642;DHT22;6894;52.196;9.904;2023-04-06T06:08:27;2.30;1.00
13642;DHT22;6894;52.196;9.904;2023-04-06T06:10:54;2.50;1.00
13642;DHT22;6894;52.196;9.904;2023-04-06T06:13:21;2.60;99.90
13642;DHT22;6894;52.196;9.904;2023-04-06T06:15:50;2.80;6.20
13642;DHT22;6894;52.196;9.904;2023-04-06T06:18:17;2.90;1.00
13642;DHT22;6894;52.196;9.904;2023-04-06T06:20:44;3.00;1.00
13642;DHT22;6894;52.196;9.904;2023-04-06T06:23:11;3.20;99.90
13642;DHT22;6894;52.196;9.904;2023-04-06T06:25:38;3.20;99.90
13642;DHT22;6894;52.196;9.904;2023-04-06T06:28:05;3.30;1.00
13642;DHT22;6894;52.196;9.904;2023-04-06T06:30:32;3.40;1.00
13642;DHT22;6894;52.196;9.904;2023-04-06T06:33:00;3.50;1.00
13642;DHT22;6894;52.196;9.904;2023-04-06T06:35:27;3.70;10.90
13642;DHT22;6894;52.196;9.904;2023-04-06T06:37:54;3.80;1.00
13642;DHT22;6894;52.196;9.904;2023-04-06T06:40:21;3.90;1.00
13642;DHT22;6894;52.196;9.904;2023-04-06T06:42:49;4.10;1.00
13642;DHT22;6894;52.196;9.904;2023-04-06T06:45:17;4.30;1.00
13642;DHT22;6894;52.196;9.904;2023-04-06T06:47:44;4.50;99.90
13642;DHT22;6894;52.196;9.904;2023-04-06T06:50:12;4.60;99.90
13642;DHT22;6894;52.196;9.904;2023-04-06T06:52:39;4.80;99.90
13642;DHT22;6894;52.196;9.904;2023-04-06T06:55:08;4.90;1.00
13642;DHT22;6894;52.196;9.904;2023-04-06T06:57:35;5.00;1.00
13642;DHT22;6894;52.196;9.904;2023-04-06T07:00:04;5.20;1.00
13642;DHT22;6894;52.196;9.904;2023-04-06T07:02:33;5.30;1.00
13642;DHT22;6894;52.196;9.904;2023-04-06T07:05:01;5.40;1.00
13642;DHT22;6894;52.196;9.904;2023-04-06T07:07:29;5.60;99.90
13642;DHT22;6894;52.196;9.904;2023-04-06T07:09:56;5.70;99.90
13642;DHT22;6894;52.196;9.904;2023-04-06T07:12:23;5.80;1.00
13642;DHT22;6894;52.196;9.904;2023-04-06T07:14:50;5.90;66.50
13642;DHT22;6894;52.196;9.904;2023-04-06T07:17:16;6.00;88.30
13642;DHT22;6894;52.196;9.904;2023-04-06T07:19:43;6.20;1.00
13642;DHT22;6894;52.196;9.904;2023-04-06T07:22:10;6.30;1.00
13642;DHT22;6894;52.196;9.904;2023-04-06T07:24:38;6.40;1.00
13642;DHT22;6894;52.196;9.904;2023-04-06T07:27:05;6.60;1.00
13642;DHT22;6894;52.196;9.904;2023-04-06T07:29:32;6.70;1.00
13642;DHT22;6894;52.196;9.904;2023-04-06T07:31:59;6.90;1.00
13642;DHT22;6894;52.196;9.904;2023-04-06T07:34:26;7.10;1.00
13642;DHT22;6894;52.196;9.904;2023-04-06T07:36:53;7.40;1.00
13642;DHT22;6894;52.196;9.904;2023-04-06T07:39:20;7.50;1.00
13642;DHT22;6894;52.196;9.904;2023-04-06T07:41:48;7.70;1.00
13642;DHT22;6894;52.196;9.904;2023-04-06T07:44:15;7.80;99.90
13642;DHT22;6894;52.196;9.904;2023-04-06T07:46:42;8.00;99.90
13642;DHT22;6894;52.196;9.904;2023-04-06T07:49:09;8.20;99.90
13642;DHT22;6894;52.196;9.904;2023-04-06T07:51:36;8.30;99.90
13642;DHT22;6894;52.196;9.904;2023-04-06T07:54:03;8.50;99.90
13642;DHT22;6894;52.196;9.904;2023-04-06T07:56:30;8.60;99.90
13642;DHT22;6894;52.196;9.904;2023-04-06T07:58:58;8.70;99.90
13642;DHT22;6894;52.196;9.904;2023-04-06T08:01:27;8.80;99.90
13642;DHT22;6894;52.196;9.904;2023-04-06T08:03:55;9.00;99.90
13642;DHT22;6894;52.196;9.904;2023-04-06T08:06:22;9.20;99.90
13642;DHT22;6894;52.196;9.904;2023-04-06T08:08:49;9.40;99.90
13642;DHT22;6894;52.196;9.904;2023-04-06T08:11:16;9.40;99.90
13642;DHT22;6894;52.196;9.904;2023-04-06T08:13:43;9.50;99.90
13642;DHT22;6894;52.196;9.904;2023-04-06T08:16:11;9.50;99.90
13642;DHT22;6894;52.196;9.904;2023-04-06T08:18:38;9.70;99.90
13642;DHT22;6894;52.196;9.904;2023-04-06T08:21:05;9.80;99.90
13642;DHT22;6894;52.196;9.904;2023-04-06T08:23:32;9.80;99.90
13642;DHT22;6894;52.196;9.904;2023-04-06T08:25:59;9.90;99.90
13642;DHT22;6894;52.196;9.904;2023-04-06T08:28:26;10.10;99.90
13642;DHT22;6894;52.196;9.904;2023-04-06T08:30:53;10.20;82.90
13642;DHT22;6894;52.196;9.904;2023-04-06T08:33:21;10.30;85.80
13642;DHT22;6894;52.196;9.904;2023-04-06T08:35:48;10.30;44.30
13642;DHT22;6894;52.196;9.904;2023-04-06T08:38:15;10.40;58.50
13642;DHT22;6894;52.196;9.904;2023-04-06T08:40:42;10.60;61.30
13642;DHT22;6894;52.196;9.904;2023-04-06T08:43:13;10.70;13.50
13642;DHT22;6894;52.196;9.904;2023-04-06T08:45:41;10.80;1.00
13642;DHT22;6894;52.196;9.904;2023-04-06T08:48:08;11.10;1.00
13642;DHT22;6894;52.196;9.904;2023-04-06T08:50:38;11.30;1.00
13642;DHT22;6894;52.196;9.904;2023-04-06T08:53:06;11.30;1.00
13642;DHT22;6894;52.196;9.904;2023-04-06T08:55:35;11.60;1.00
13642;DHT22;6894;52.196;9.904;2023-04-06T08:58:03;11.70;1.00
13642;DHT22;6894;52.196;9.904;2023-04-06T09:00:30;11.70;1.00
13642;DHT22;6894;52.196;9.904;2023-04-06T09:02:58;12.00;1.00
13642;DHT22;6894;52.196;9.904;2023-04-06T09:05:26;12.00;1.00
13642;DHT22;6894;52.196;9.904;2023-04-06T09:07:54;12.20;1.00
13642;DHT22;6894;52.196;9.904;2023-04-06T09:10:21;12.30;1.00
13642;DHT22;6894;52.196;9.904;2023-04-06T09:12:50;12.10;1.00
13642;DHT22;6894;52.196;9.904;2023-04-06T09:15:18;12.20;1.00
13642;DHT22;6894;52.196;9.904;2023-04-06T09:17:46;12.30;1.00
13642;DHT22;6894;52.196;9.904;2023-04-06T09:20:12;12.40;1.00
13642;DHT22;6894;52.196;9.904;2023-04-06T09:22:40;12.30;1.00
13642;DHT22;6894;52.196;9.904;2023-04-06T09:25:17;12.30;1.00
13642;DHT22;6894;52.196;9.904;2023-04-06T09:27:44;12.40;1.00
13642;DHT22;6894;52.196;9.904;2023-04-06T09:30:12;12.60;1.00
13642;DHT22;6894;52.196;9.904;2023-04-06T09:32:45;12.70;1.00
13642;DHT22;6894;52.196;9.904;2023-04-06T09:35:13;12.50;1.00
13642;DHT22;6894;52.196;9.904;2023-04-06T09:37:40;12.70;1.00
13642;DHT22;6894;52.196;9.904;2023-04-06T09:40:07;12.90;1.00
13642;DHT22;6894;52.196;9.904;2023-04-06T09:42:36;12.90;1.00
13642;DHT22;6894;52.196;9.904;2023-04-06T09:45:03;13.00;1.00
13642;DHT22;6894;52.196;9.904;2023-04-06T09:47:31;13.00;1.00
13642;DHT22;6894;52.196;9.904;2023-04-06T09:49:59;13.00;1.00
13642;DHT22;6894;52.196;9.904;2023-04-06T09:52:29;13.20;1.00
13642;DHT22;6894;52.196;9.904;2023-04-06T09:55:01;13.30;1.00
13642;DHT22;6894;52.196;9.904;2023-04-06T09:57:32;13.20;1.00
13642;DHT22;6894;52.196;9.904;2023-04-06T10:00:06;13.20;1.00
13642;DHT22;6894;52.196;9.904;2023-04-06T10:02:41;13.30;1.00
13642;DHT22;6894;52.196;9.904;2023-04-06T10:05:15;13.30;1.00
13642;DHT22;6894;52.196;9.904;2023-04-06T10:07:44;12.90;1.00
13642;DHT22;6894;52.196;9.904;2023-04-06T10:10:12;12.70;1.00
13642;DHT22;6894;52.196;9.904;2023-04-06T10:12:41;12.80;1.00
13642;DHT22;6894;52.196;9.904;2023-04-06T10:15:10;13.20;1.00
13642;DHT22;6894;52.196;9.904;2023-04-06T10:17:38;13.30;1.00
13642;DHT22;6894;52.196;9.904;2023-04-06T10:20:09;13.20;1.00
13642;DHT22;6894;52.196;9.904;2023-04-06T10:22:41;13.10;1.00
13642;DHT22;6894;52.196;9.904;2023-04-06T10:25:10;13.10;1.00
13642;DHT22;6894;52.196;9.904;2023-04-06T10:27:37;13.20;1.00
13642;DHT22;6894;52.196;9.904;2023-04-06T10:30:05;13.40;1.00
13642;DHT22;6894;52.196;9.904;2023-04-06T10:32:37;13.40;1.00
13642;DHT22;6894;52.196;9.904;2023-04-06T10:35:08;13.20;1.00
13642;DHT22;6894;52.196;9.904;2023-04-06T10:37:50;13.30;1.00
13642;DHT22;6894;52.196;9.904;2023-04-06T10:40:19;13.50;1.00
13642;DHT22;6894;52.196;9.904;2023-04-06T10:42:46;13.30;1.00
13642;DHT22;6894;52.196;9.904;2023-04-06T10:45:20;13.40;1.00
13642;DHT22;6894;52.196;9.904;2023-04-06T10:47:48;13.30;1.00
13642;DHT22;6894;52.196;9.904;2023-04-06T10:50:16;13.10;1.00
13642;DHT22;6894;52.196;9.904;2023-04-06T10:52:44;13.00;1.00
13642;DHT22;6894;52.196;9.904;2023-04-06T10:55:13;13.20;1.00
13642;DHT22;6894;52.196;9.904;2023-04-06T10:57:40;13.50;1.00
13642;DHT22;6894;52.196;9.904;2023-04-06T11:00:08;13.50;1.00
13642;DHT22;6894;52.196;9.904;2023-04-06T11:02:35;13.40;1.00
13642;DHT22;6894;52.196;9.904;2023-04-06T11:05:07;13.30;1.00
13642;DHT22;6894;52.196;9.904;2023-04-06T11:07:34;13.40;1.00
13642;DHT22;6894;52.196;9.904;2023-04-06T11:10:00;13.40;1.00
13642;DHT22;6894;52.196;9.904;2023-04-06T11:12:28;13.40;1.00
13642;DHT22;6894;52.196;9.904;2023-04-06T11:14:56;13.40;1.00
13642;DHT22;6894;52.196;9.904;2023-04-06T11:17:28;13.50;1.00
13642;DHT22;6894;52.196;9.904;2023-04-06T11:19:55;13.60;1.00
13642;DHT22;6894;52.196;9.904;2023-04-06T11:22:23;13.60;1.00
13642;DHT22;6894;52.196;9.904;2023-04-06T11:24:50;13.60;1.00
13642;DHT22;6894;52.196;9.904;2023-04-06T11:27:18;13.70;1.00
13642;DHT22;6894;52.196;9.904;2023-04-06T11:29:46;13.60;1.00
13642;DHT22;6894;52.196;9.904;2023-04-06T11:32:20;13.80;1.00
13642;DHT22;6894;52.196;9.904;2023-04-06T11:34:48;13.70;1.00
13642;DHT22;6894;52.196;9.904;2023-04-06T11:37:15;13.70;1.00
13642;DHT22;6894;52.196;9.904;2023-04-06T11:39:47;13.60;1.00
13642;DHT22;6894;52.196;9.904;2023-04-06T11:42:21;13.90;1.00
13642;DHT22;6894;52.196;9.904;2023-04-06T11:44:50;13.80;1.00
13642;DHT22;6894;52.196;9.904;2023-04-06T11:47:18;13.80;1.00
13642;DHT22;6894;52.196;9.904;2023-04-06T11:49:45;13.80;1.00
13642;DHT22;6894;52.196;9.904;2023-04-06T11:52:17;13.80;1.00
13642;DHT22;6894;52.196;9.904;2023-04-06T11:54:46;14.00;1.00
13642;DHT22;6894;52.196;9.904;2023-04-06T11:57:12;14.00;1.00
13642;DHT22;6894;52.196;9.904;2023-04-06T11:59:40;14.30;1.00
13642;DHT22;6894;52.196;9.904;2023-04-06T12:02:07;14.40;1.00
13642;DHT22;6894;52.196;9.904;2023-04-06T12:04:34;14.20;1.00
13642;DHT22;6894;52.196;9.904;2023-04-06T12:07:01;14.20;1.00
13642;DHT22;6894;52.196;9.904;2023-04-06T12:09:28;14.40;1.00
13642;DHT22;6894;52.196;9.904;2023-04-06T12:11:56;14.60;1.00
13642;DHT22;6894;52.196;9.904;2023-04-06T12:14:23;14.60;1.00
13642;DHT22;6894;52.196;9.904;2023-04-06T12:16:50;14.60;1.00
13642;DHT22;6894;52.196;9.904;2023-04-06T12:19:17;14.50;1.00
13642;DHT22;6894;52.196;9.904;2023-04-06T12:21:44;14.60;1.00
13642;DHT22;6894;52.196;9.904;2023-04-06T12:24:11;14.70;1.00
13642;DHT22;6894;52.196;9.904;2023-04-06T12:26:38;14.80;1.00
13642;DHT22;6894;52.196;9.904;2023-04-06T12:29:08;14.70;1.00
13642;DHT22;6894;52.196;9.904;2023-04-06T12:31:36;14.60;1.00
13642;DHT22;6894;52.196;9.904;2023-04-06T12:34:04;14.60;1.00
13642;DHT22;6894;52.196;9.904;2023-04-06T12:36:31;14.40;1.00
13642;DHT22;6894;52.196;9.904;2023-04-06T12:38:58;14.60;1.00
13642;DHT22;6894;52.196;9.904;2023-04-06T12:41:25;14.70;1.00
13642;DHT22;6894;52.196;9.904;2023-04-06T12:43:52;14.90;1.00
13642;DHT22;6894;52.196;9.904;2023-04-06T12:46:21;15.00;1.00
13642;DHT22;6894;52.196;9.904;2023-04-06T12:48:48;15.00;1.00
13642;DHT22;6894;52.196;9.904;2023-04-06T12:51:15;15.20;1.00
13642;DHT22;6894;52.196;9.904;2023-04-06T12:53:42;15.30;1.00
13642;DHT22;6894;52.196;9.904;2023-04-06T12:56:13;15.30;1.00
13642;DHT22;6894;52.196;9.904;2023-04-06T12:58:40;14.90;1.00
13642;DHT22;6894;52.196;9.904;2023-04-06T13:01:08;15.00;1.00
13642;DHT22;6894;52.196;9.904;2023-04-06T13:03:36;14.90;1.00
13642;DHT22;6894;52.196;9.904;2023-04-06T13:06:03;14.90;1.00
13642;DHT22;6894;52.196;9.904;2023-04-06T13:08:30;15.10;1.00
13642;DHT22;6894;52.196;9.904;2023-04-06T13:10:57;15.20;1.00
13642;DHT22;6894;52.196;9.904;2023-04-06T13:13:25;15.30;1.00
13642;DHT22;6894;52.196;9.904;2023-04-06T13:15:52;15.30;1.00
13642;DHT22;6894;52.196;9.904;2023-04-06T13:18:19;15.20;1.00
13642;DHT22;6894;52.196;9.904;2023-04-06T13:20:48;15.00;1.00
13642;DHT22;6894;52.196;9.904;2023-04-06T13:23:15;15.10;1.00
13642;DHT22;6894;52.196;9.904;2023-04-06T13:25:41;15.10;1.00
13642;DHT22;6894;52.196;9.904;2023-04-06T13:28:09;15.20;1.00
13642;DHT22;6894;52.196;9.904;2023-04-06T13:30:36;15.20;1.00
13642;DHT22;6894;52.196;9.904;2023-04-06T13:33:03;15.30;1.00
13642;DHT22;6894;52.196;9.904;2023-04-06T13:35:30;15.40;1.00
13642;DHT22;6894;52.196;9.904;2023-04-06T13:37:58;15.40;1.00
13642;DHT22;6894;52.196;9.904;2023-04-06T13:40:25;15.30;1.00
13642;DHT22;6894;52.196;9.904;2023-04-06T13:42:52;15.20;1.00
13642;DHT22;6894;52.196;9.904;2023-04-06T13:45:18;15.30;1.00
13642;DHT22;6894;52.196;9.904;2023-04-06T13:47:45;15.30;1.00
13642;DHT22;6894;52.196;9.904;2023-04-06T13:50:12;15.30;1.00
13642;DHT22;6894;52.196;9.904;2023-04-06T13:52:39;15.10;1.00
13642;DHT22;6894;52.196;9.904;2023-04-06T13:55:08;15.20;1.00
13642;DHT22;6894;52.196;9.904;2023-04-06T13:57:34;15.10;1.00
13642;DHT22;6894;52.196;9.904;2023-04-06T14:00:03;15.40;1.00
13642;DHT22;6894;52.196;9.904;2023-04-06T14:02:30;15.50;1.00
13642;DHT22;6894;52.196;9.904;2023-04-06T14:04:57;15.60;1.00
13642;DHT22;6894;52.196;9.904;2023-04-06T14:07:24;15.40;1.00
13642;DHT22;6894;52.196;9.904;2023-04-06T14:09:51;15.40;1.00
13642;DHT22;6894;52.196;9.904;2023-04-06T14:12:19;15.00;1.00
13642;DHT22;6894;52.196;9.904;2023-04-06T14:14:46;15.00;1.00
13642;DHT22;6894;52.196;9.904;2023-04-06T14:17:13;14.90;1.00
13642;DHT22;6894;52.196;9.904;2023-04-06T14:19:40;15.00;1.00
13642;DHT22;6894;52.196;9.904;2023-04-06T14:22:07;15.30;1.00
13642;DHT22;6894;52.196;9.904;2023-04-06T14:24:34;15.40;1.00
13642;DHT22;6894;52.196;9.904;2023-04-06T14:27:01;15.50;1.00
13642;DHT22;6894;52.196;9.904;2023-04-06T14:29:30;15.70;1.00
13642;DHT22;6894;52.196;9.904;2023-04-06T14:31:58;15.70;1.00
13642;DHT22;6894;52.196;9.904;2023-04-06T14:34:26;15.60;1.00
13642;DHT22;6894;52.196;9.904;2023-04-06T14:36:53;15.60;1.00
13642;DHT22;6894;52.196;9.904;2023-04-06T14:39:19;15.60;1.00
13642;DHT22;6894;52.196;9.904;2023-04-06T14:41:46;15.40;1.00
13642;DHT22;6894;52.196;9.904;2023-04-06T14:44:14;15.30;1.00
13642;DHT22;6894;52.196;9.904;2023-04-06T14:46:43;15.40;1.00
13642;DHT22;6894;52.196;9.904;2023-04-06T14:49:10;15.50;1.00
13642;DHT22;6894;52.196;9.904;2023-04-06T14:51:36;15.60;1.00
13642;DHT22;6894;52.196;9.904;2023-04-06T14:54:03;15.60;1.00
13642;DHT22;6894;52.196;9.904;2023-04-06T14:56:30;15.60;1.00
13642;DHT22;6894;52.196;9.904;2023-04-06T14:58:58;15.30;1.00
13642;DHT22;6894;52.196;9.904;2023-04-06T15:01:24;15.10;1.00
13642;DHT22;6894;52.196;9.904;2023-04-06T15:03:53;15.10;1.00
13642;DHT22;6894;52.196;9.904;2023-04-06T15:06:19;15.10;1.00
13642;DHT22;6894;52.196;9.904;2023-04-06T15:08:48;15.00;1.00
13642;DHT22;6894;52.196;9.904;2023-04-06T15:11:15;15.00;1.00
13642;DHT22;6894;52.196;9.904;2023-04-06T15:13:42;14.90;1.00
13642;DHT22;6894;52.196;9.904;2023-04-06T15:16:08;14.80;1.00
13642;DHT22;6894;52.196;9.904;2023-04-06T15:18:35;14.90;1.00
13642;DHT22;6894;52.196;9.904;2023-04-06T15:21:03;15.00;1.00
13642;DHT22;6894;52.196;9.904;2023-04-06T15:23:31;15.00;1.00
13642;DHT22;6894;52.196;9.904;2023-04-06T15:25:59;14.90;1.00
13642;DHT22;6894;52.196;9.904;2023-04-06T15:28:27;15.00;1.00
13642;DHT22;6894;52.196;9.904;2023-04-06T15:30:54;14.90;1.00
13642;DHT22;6894;52.196;9.904;2023-04-06T15:33:21;15.00;1.00
13642;DHT22;6894;52.196;9.904;2023-04-06T15:35:48;15.00;1.00
13642;DHT22;6894;52.196;9.904;2023-04-06T15:38:16;14.90;1.00
13642;DHT22;6894;52.196;9.904;2023-04-06T15:40:45;14.80;1.00
13642;DHT22;6894;52.196;9.904;2023-04-06T15:43:12;14.80;1.00
13642;DHT22;6894;52.196;9.904;2023-04-06T15:45:40;14.80;1.00
13642;DHT22;6894;52.196;9.904;2023-04-06T15:48:06;14.80;1.00
13642;DHT22;6894;52.196;9.904;2023-04-06T15:50:34;14.80;1.00
13642;DHT22;6894;52.196;9.904;2023-04-06T15:53:01;14.80;1.00
13642;DHT22;6894;52.196;9.904;2023-04-06T15:55:29;14.70;1.00
13642;DHT22;6894;52.196;9.904;2023-04-06T15:57:56;14.60;1.00
13642;DHT22;6894;52.196;9.904;2023-04-06T16:00:23;14.60;1.00
13642;DHT22;6894;52.196;9.904;2023-04-06T16:02:49;14.70;1.00